Time;durP1;ratioP1;P1;durP2;ratioP2;P2;SDS_P1;SDS_P2;PMS_P1;PMS_P2;Temp;Humidity;BMP_temperature;BMP_pressure;BME280_temperature;BME280_humidity;BME280_pressure;Samples;Min_cycle;Max_cycle;Signal;HPM_P1;HPM_P2
2022/07/13 00:00:12;;;;;;;17.63;15.77;;;20.60;99.90;;;;;;4991021;28;20819;-80
2022/07/13 00:02:38;;;;;;;17.85;16.05;;;20.60;99.90;;;;;;5032390;28;20514;-80
2022/07/13 00:05:06;;;;;;;18.35;16.55;;;20.60;99.90;;;;;;5006193;28;20130;-79
2022/07/13 00:07:32;;;;;;;17.55;15.45;;;20.60;99.90;;;;;;5041092;28;20084;-80
2022/07/13 00:09:58;;;;;;;18.23;15.57;;;20.60;99.90;;;;;;5006975;28;20131;-80
2022/07/13 00:12:24;;;;;;;16.23;14.55;;;20.60;99.90;;;;;;5023546;28;20064;-80
2022/07/13 00:14:50;;;;;;;15.38;13.82;;;20.60;99.90;;;;;;5022690;28;20199;-81
2022/07/13 00:17:16;;;;;;;15.30;13.73;;;20.60;99.90;;;;;;5007325;28;20052;-80
2022/07/13 00:19:42;;;;;;;16.08;14.27;;;20.60;99.90;;;;;;5024078;28;20052;-80
2022/07/13 00:22:07;;;;;;;15.13;13.55;;;20.60;99.90;;;;;;5024819;28;20040;-80
2022/07/13 00:24:33;;;;;;;16.50;14.23;;;20.60;99.90;;;;;;5041130;28;20500;-80
2022/07/13 00:26:59;;;;;;;13.98;12.18;;;20.60;99.90;;;;;;5039571;28;20170;-80
2022/07/13 00:29:24;;;;;;;13.85;12.40;;;20.60;99.90;;;;;;5007828;28;20056;-80
2022/07/13 00:31:50;;;;;;;14.43;12.43;;;20.60;99.90;;;;;;5026663;28;20503;-81
2022/07/13 00:34:17;;;;;;;13.82;12.52;;;20.60;99.90;;;;;;5026688;28;20049;-80
2022/07/13 00:36:43;;;;;;;14.30;12.80;;;20.60;99.90;;;;;;5010533;28;20582;-81
2022/07/13 00:39:08;;;;;;;13.98;12.57;;;20.60;99.90;;;;;;5041861;28;20131;-81
2022/07/13 00:41:34;;;;;;;12.82;11.52;;;20.70;99.90;;;;;;5043724;28;20079;-80
2022/07/13 00:44:08;;;;;;;12.82;10.40;;;20.70;99.90;;;;;;5026924;28;20385;-80
2022/07/13 00:46:34;;;;;;;12.73;11.43;;;20.70;99.90;;;;;;5043768;28;20429;-80
2022/07/13 00:49:00;;;;;;;11.23;10.05;;;20.80;99.90;;;;;;5026697;28;20062;-80
2022/07/13 00:51:27;;;;;;;12.57;11.35;;;20.80;99.90;;;;;;5028368;28;20052;-81
2022/07/13 00:53:53;;;;;;;12.75;11.40;;;20.80;99.90;;;;;;5033679;28;20451;-80
2022/07/13 00:56:20;;;;;;;12.85;11.60;;;20.90;99.90;;;;;;5051582;28;20131;-80
2022/07/13 00:58:46;;;;;;;12.20;11.00;;;20.90;99.90;;;;;;5043438;28;20070;-80
2022/07/13 01:01:12;;;;;;;11.00;9.90;;;20.90;99.90;;;;;;5018743;28;20048;-80
2022/07/13 01:03:38;;;;;;;11.63;10.43;;;20.90;99.90;;;;;;5027571;28;20048;-80
2022/07/13 01:06:05;;;;;;;14.23;11.43;;;20.90;99.90;;;;;;5025329;28;20068;-80
2022/07/13 01:08:33;;;;;;;12.15;10.80;;;20.90;99.90;;;;;;5009207;28;20103;-80
2022/07/13 01:10:59;;;;;;;13.27;11.30;;;21.00;99.90;;;;;;5060065;28;20094;-81
2022/07/13 01:13:25;;;;;;;12.45;11.15;;;21.00;99.90;;;;;;5043479;28;20048;-81
2022/07/13 01:15:51;;;;;;;12.77;11.00;;;21.00;99.90;;;;;;5042819;28;20084;-81
2022/07/13 01:18:17;;;;;;;10.90;9.77;;;21.00;99.90;;;;;;5025147;28;20083;-81
2022/07/13 01:20:43;;;;;;;12.38;10.40;;;21.00;99.90;;;;;;5026121;28;20135;-80
2022/07/13 01:23:14;;;;;;;10.88;9.80;;;21.00;99.90;;;;;;5026348;28;20563;-80
2022/07/13 01:25:41;;;;;;;11.63;9.45;;;21.00;99.90;;;;;;5025167;28;20044;-80
2022/07/13 01:28:07;;;;;;;9.30;8.10;;;20.90;99.90;;;;;;5026186;28;20040;-81
2022/07/13 01:30:34;;;;;;;10.25;8.60;;;21.10;99.90;;;;;;5026304;28;20801;-80
2022/07/13 01:32:59;;;;;;;10.98;7.50;;;21.00;99.90;;;;;;5041444;28;20137;-80
2022/07/13 01:35:25;;;;;;;8.20;7.18;;;21.10;99.90;;;;;;5025378;28;20076;-80
2022/07/13 01:37:53;;;;;;;8.77;6.22;;;21.10;99.90;;;;;;5024391;28;20048;-81
2022/07/13 01:40:19;;;;;;;5.68;5.03;;;21.10;99.90;;;;;;5024768;28;20142;-80
2022/07/13 01:42:51;;;;;;;5.28;4.75;;;21.10;99.90;;;;;;5025182;28;20056;-81
2022/07/13 01:45:18;;;;;;;5.05;3.88;;;21.10;99.90;;;;;;5021264;28;20055;-80
2022/07/13 01:47:48;;;;;;;4.70;3.58;;;21.10;99.90;;;;;;5024447;28;20051;-80
2022/07/13 01:50:16;;;;;;;6.55;3.90;;;21.20;99.90;;;;;;5024711;28;20052;-80
2022/07/13 01:52:42;;;;;;;4.13;3.22;;;21.20;99.90;;;;;;5027010;28;20053;-80
2022/07/13 01:55:10;;;;;;;3.92;2.92;;;21.20;99.90;;;;;;5025162;28;20037;-80
2022/07/13 01:57:36;;;;;;;4.32;2.78;;;21.20;99.90;;;;;;5007129;28;20132;-80
2022/07/13 02:00:14;;;;;;;4.28;2.85;;;21.30;99.90;;;;;;5041842;28;20049;-80
2022/07/13 02:02:41;;;;;;;4.97;2.70;;;21.30;99.90;;;;;;5026065;28;20047;-80
2022/07/13 02:05:08;;;;;;;3.67;2.42;;;21.30;99.90;;;;;;5042239;28;20052;-81
2022/07/13 02:07:34;;;;;;;5.18;2.63;;;21.40;99.90;;;;;;5041494;28;20049;-80
2022/07/13 02:10:00;;;;;;;3.63;2.50;;;21.40;99.90;;;;;;5025368;28;20166;-81
2022/07/13 02:12:25;;;;;;;4.68;2.83;;;21.40;99.90;;;;;;5009637;28;20045;-81
2022/07/13 02:14:51;;;;;;;3.70;3.10;;;21.40;99.90;;;;;;4992058;28;20475;-81
2022/07/13 02:17:17;;;;;;;3.88;3.15;;;21.50;99.90;;;;;;5022351;28;20613;-80
2022/07/13 02:19:42;;;;;;;5.30;3.10;;;21.50;99.90;;;;;;5010354;28;20442;-80
2022/07/13 02:22:08;;;;;;;4.00;2.85;;;21.40;99.90;;;;;;5041879;28;20036;-80
2022/07/13 02:24:34;;;;;;;3.33;2.72;;;21.40;99.90;;;;;;4992711;28;20056;-79
2022/07/13 02:27:00;;;;;;;3.95;2.80;;;21.40;99.90;;;;;;5024426;28;20052;-80
2022/07/13 02:29:26;;;;;;;4.13;2.58;;;21.40;99.90;;;;;;5022640;28;20052;-80
2022/07/13 02:31:52;;;;;;;4.05;2.50;;;21.40;99.90;;;;;;5023808;28;20124;-80
2022/07/13 02:34:18;;;;;;;3.53;2.58;;;21.40;99.90;;;;;;5024033;28;20094;-80
2022/07/13 02:36:43;;;;;;;2.80;2.45;;;21.40;99.90;;;;;;5007166;28;20099;-80
2022/07/13 02:39:09;;;;;;;3.13;2.38;;;21.40;99.90;;;;;;4992542;28;20106;-80
2022/07/13 02:41:35;;;;;;;5.25;2.55;;;21.40;99.90;;;;;;5026846;28;20056;-80
2022/07/13 02:44:01;;;;;;;3.65;2.55;;;21.40;99.90;;;;;;5009481;28;20506;-80
2022/07/13 02:46:26;;;;;;;4.45;3.10;;;21.40;99.90;;;;;;5026446;28;20480;-80
2022/07/13 02:48:52;;;;;;;3.67;2.58;;;21.30;99.90;;;;;;5047494;28;20084;-80
2022/07/13 02:51:18;;;;;;;3.60;2.85;;;21.30;99.90;;;;;;5027074;28;20049;-81
2022/07/13 02:53:44;;;;;;;3.53;2.70;;;21.30;99.90;;;;;;5010297;28;20045;-80
2022/07/13 02:56:09;;;;;;;5.55;2.88;;;21.30;99.90;;;;;;5009281;28;20132;-81
2022/07/13 02:58:35;;;;;;;4.00;2.80;;;21.30;99.90;;;;;;5007465;28;20053;-80
2022/07/13 03:01:01;;;;;;;4.68;2.47;;;21.30;99.90;;;;;;5026044;28;20495;-80
2022/07/13 03:03:27;;;;;;;4.38;2.60;;;21.30;99.90;;;;;;5026546;28;20122;-80
2022/07/13 03:05:52;;;;;;;3.47;2.75;;;21.30;99.90;;;;;;4994490;28;20062;-80
2022/07/13 03:08:18;;;;;;;5.40;2.72;;;21.30;99.90;;;;;;5008765;28;20467;-80
2022/07/13 03:10:45;;;;;;;4.82;3.05;;;21.30;99.90;;;;;;4994941;28;20118;-80
2022/07/13 03:13:11;;;;;;;4.00;2.92;;;21.30;99.90;;;;;;4991982;28;20091;-80
2022/07/13 03:15:36;;;;;;;4.25;2.67;;;21.30;99.90;;;;;;5042112;28;20080;-81
2022/07/13 03:18:02;;;;;;;4.35;2.78;;;21.30;99.90;;;;;;5027341;28;20098;-80
2022/07/13 03:20:28;;;;;;;4.82;2.42;;;21.30;99.90;;;;;;5023377;28;20083;-80
2022/07/13 03:22:54;;;;;;;4.25;2.55;;;21.30;99.90;;;;;;5009812;28;20055;-80
2022/07/13 03:25:19;;;;;;;5.25;2.90;;;21.30;99.90;;;;;;5041123;28;20599;-80
2022/07/13 03:27:45;;;;;;;3.47;2.20;;;21.30;99.90;;;;;;5025829;28;20131;-80
2022/07/13 03:30:11;;;;;;;4.47;2.75;;;21.30;99.90;;;;;;5007573;28;20060;-80
2022/07/13 03:32:36;;;;;;;3.60;2.53;;;21.30;99.90;;;;;;5025278;28;20065;-80
2022/07/13 03:35:02;;;;;;;4.25;2.63;;;21.30;99.90;;;;;;4990319;28;20032;-80
2022/07/13 03:37:28;;;;;;;4.35;2.92;;;21.30;99.90;;;;;;5024428;28;20133;-80
2022/07/13 03:39:54;;;;;;;4.70;3.05;;;21.30;99.90;;;;;;5024734;28;20151;-80
2022/07/13 03:42:20;;;;;;;5.28;3.03;;;21.30;99.90;;;;;;5007992;28;20134;-80
2022/07/13 03:44:46;;;;;;;5.60;2.90;;;21.30;99.90;;;;;;4993750;28;20577;-80
2022/07/13 03:47:11;;;;;;;4.88;3.10;;;21.30;99.90;;;;;;5022020;28;20124;-80
2022/07/13 03:49:37;;;;;;;5.20;3.40;;;21.30;99.90;;;;;;5041974;28;20056;-80
2022/07/13 03:52:03;;;;;;;4.72;3.17;;;21.30;99.90;;;;;;5023497;28;20151;-81
2022/07/13 03:54:28;;;;;;;5.32;3.13;;;21.30;99.90;;;;;;5022144;28;20497;-79
2022/07/13 03:56:54;;;;;;;4.88;3.08;;;21.30;99.90;;;;;;5022179;28;20496;-80
2022/07/13 03:59:20;;;;;;;4.13;3.40;;;21.30;99.90;;;;;;5022749;28;20192;-79
2022/07/13 04:01:46;;;;;;;5.10;2.90;;;21.30;99.90;;;;;;5024479;28;20243;-80
2022/07/13 04:04:11;;;;;;;5.03;3.38;;;21.20;99.90;;;;;;5020863;28;20040;-80
2022/07/13 04:06:37;;;;;;;3.72;3.00;;;21.20;99.90;;;;;;5033013;28;20052;-80
2022/07/13 04:09:03;;;;;;;3.90;2.80;;;21.20;99.90;;;;;;5026787;28;20156;-81
2022/07/13 04:11:29;;;;;;;3.88;3.17;;;21.10;99.90;;;;;;4995330;28;20063;-80
2022/07/13 04:13:55;;;;;;;3.55;2.85;;;21.10;99.90;;;;;;5027393;28;20123;-80
2022/07/13 04:16:20;;;;;;;5.93;3.05;;;21.10;99.90;;;;;;5012598;28;20449;-80
2022/07/13 04:18:46;;;;;;;3.45;3.00;;;21.10;99.90;;;;;;5027062;28;20052;-80
2022/07/13 04:21:13;;;;;;;5.82;3.38;;;21.00;99.90;;;;;;5012000;28;20048;-81
2022/07/13 04:23:40;;;;;;;6.50;3.60;;;21.00;99.90;;;;;;5014042;28;20487;-81
2022/07/13 04:26:06;;;;;;;5.97;3.58;;;21.00;99.90;;;;;;5027536;28;20048;-81
2022/07/13 04:28:32;;;;;;;5.47;3.53;;;21.00;99.90;;;;;;5026714;28;20052;-80
2022/07/13 04:30:58;;;;;;;4.95;3.72;;;21.00;99.90;;;;;;5036080;28;20110;-81
2022/07/13 04:33:24;;;;;;;4.95;3.95;;;21.00;99.90;;;;;;5010989;28;20059;-81
2022/07/13 04:35:49;;;;;;;5.97;3.78;;;21.00;99.90;;;;;;5008968;28;20131;-82
2022/07/13 04:38:15;;;;;;;5.50;4.00;;;21.00;99.90;;;;;;5018064;28;20052;-81
2022/07/13 04:40:41;;;;;;;5.47;3.95;;;21.00;99.90;;;;;;5011934;28;20079;-82
2022/07/13 04:43:07;;;;;;;7.47;4.15;;;21.00;99.90;;;;;;5009295;28;20480;-83
2022/07/13 04:45:33;;;;;;;5.65;3.38;;;20.90;99.90;;;;;;5019740;28;20261;-81
2022/07/13 04:47:59;;;;;;;4.47;3.80;;;20.90;99.90;;;;;;5038831;28;20542;-81
2022/07/13 04:50:25;;;;;;;4.10;3.67;;;20.90;99.90;;;;;;5037766;28;20136;-83
2022/07/13 04:52:51;;;;;;;6.15;3.60;;;20.90;99.90;;;;;;5039789;28;20182;-82
2022/07/13 04:55:17;;;;;;;4.57;3.70;;;20.90;99.90;;;;;;5053800;28;20487;-83
2022/07/13 04:57:43;;;;;;;6.25;4.07;;;20.90;99.90;;;;;;5030893;28;20072;-82
2022/07/13 05:00:10;;;;;;;8.40;4.85;;;20.90;99.90;;;;;;5057861;28;20056;-84
2022/07/13 05:02:36;;;;;;;6.75;4.03;;;20.90;99.90;;;;;;5035812;28;20052;-82
2022/07/13 05:05:03;;;;;;;5.88;4.03;;;20.90;99.90;;;;;;5039368;28;20044;-81
2022/07/13 05:07:29;;;;;;;5.03;3.17;;;20.90;99.90;;;;;;5018001;28;20053;-82
2022/07/13 05:09:55;;;;;;;7.38;4.18;;;20.90;99.90;;;;;;5015237;28;20057;-83
2022/07/13 05:12:21;;;;;;;6.25;4.30;;;20.90;99.90;;;;;;5017489;28;20103;-81
2022/07/13 05:14:47;;;;;;;4.28;3.40;;;20.90;99.90;;;;;;5024380;28;20487;-79
2022/07/13 05:17:13;;;;;;;6.25;3.92;;;20.80;99.90;;;;;;5040156;28;20049;-81
2022/07/13 05:19:38;;;;;;;6.40;4.20;;;20.80;99.90;;;;;;5026706;28;20553;-78
2022/07/13 05:22:05;;;;;;;8.85;4.32;;;20.80;99.90;;;;;;5042712;28;20048;-79
2022/07/13 05:24:30;;;;;;;7.57;3.65;;;20.70;99.90;;;;;;5026243;28;20343;-80
2022/07/13 05:26:56;;;;;;;8.10;3.90;;;20.70;99.90;;;;;;5008892;28;20044;-79
2022/07/13 05:29:22;;;;;;;7.95;3.97;;;20.70;99.90;;;;;;5011502;28;20206;-79
2022/07/13 05:31:48;;;;;;;6.05;3.50;;;20.80;99.90;;;;;;4994716;28;20053;-80
2022/07/13 05:34:14;;;;;;;5.70;3.70;;;20.80;99.90;;;;;;5025900;28;20044;-80
2022/07/13 05:36:40;;;;;;;7.88;4.10;;;20.80;99.90;;;;;;5026612;28;20051;-80
2022/07/13 05:39:06;;;;;;;7.32;3.53;;;20.90;99.90;;;;;;5042330;28;20045;-79
2022/07/13 05:41:34;;;;;;;8.93;3.92;;;20.90;99.90;;;;;;5024768;28;20758;-80
2022/07/13 05:44:00;;;;;;;7.05;3.78;;;21.00;99.90;;;;;;5034354;28;20049;-80
2022/07/13 05:46:26;;;;;;;8.75;3.78;;;21.00;99.90;;;;;;5006305;28;20048;-81
2022/07/13 05:48:52;;;;;;;5.80;3.63;;;21.00;99.90;;;;;;5007926;28;20048;-79
2022/07/13 05:51:18;;;;;;;4.38;3.45;;;21.10;99.90;;;;;;5023865;28;20053;-78
2022/07/13 05:53:44;;;;;;;6.35;3.83;;;21.10;99.90;;;;;;5025988;28;20107;-80
2022/07/13 05:56:10;;;;;;;4.50;3.58;;;21.10;99.90;;;;;;5012396;28;20041;-79
2022/07/13 05:58:35;;;;;;;5.82;3.95;;;21.20;99.90;;;;;;5009393;28;20059;-79
2022/07/13 06:01:01;;;;;;;7.10;3.92;;;21.20;99.90;;;;;;4996150;28;20103;-78
2022/07/13 06:03:27;;;;;;;8.88;3.70;;;21.20;99.90;;;;;;5026896;28;20051;-78
2022/07/13 06:05:53;;;;;;;7.53;4.03;;;21.30;99.90;;;;;;5045097;28;20048;-78
2022/07/13 06:08:18;;;;;;;8.65;3.75;;;21.40;99.90;;;;;;5011891;28;20048;-78
2022/07/13 06:10:44;;;;;;;8.30;3.90;;;21.40;99.90;;;;;;5023999;28;20049;-78
2022/07/13 06:13:10;;;;;;;8.20;3.70;;;21.50;99.90;;;;;;5017688;28;20136;-78
2022/07/13 06:15:36;;;;;;;8.05;3.95;;;21.50;99.90;;;;;;5023178;28;20682;-78
2022/07/13 06:18:02;;;;;;;8.63;3.95;;;21.60;99.90;;;;;;5028035;28;20051;-79
2022/07/13 06:20:28;;;;;;;8.15;3.70;;;21.70;99.90;;;;;;5039616;28;20044;-79
2022/07/13 06:23:09;;;;;;;6.25;3.80;;;21.80;99.90;;;;;;4991062;28;20041;-80
2022/07/13 06:25:35;;;;;;;6.95;3.90;;;21.80;99.90;;;;;;5012284;28;20322;-80
2022/07/13 06:28:01;;;;;;;6.47;3.83;;;21.80;99.90;;;;;;5005096;28;20049;-80
2022/07/13 06:30:27;;;;;;;7.35;4.07;;;21.90;99.90;;;;;;5036460;28;20499;-79
2022/07/13 06:32:52;;;;;;;4.78;3.58;;;21.90;99.90;;;;;;5020490;28;20040;-80
2022/07/13 06:35:18;;;;;;;7.25;4.00;;;22.00;99.90;;;;;;4988532;28;20553;-80
2022/07/13 06:37:44;;;;;;;7.20;3.83;;;22.10;99.90;;;;;;5015977;28;20060;-79
2022/07/13 06:40:10;;;;;;;5.82;3.40;;;22.20;99.90;;;;;;5027675;28;20091;-80
2022/07/13 06:42:36;;;;;;;6.82;3.75;;;22.30;99.90;;;;;;5025877;28;20661;-79
2022/07/13 06:45:02;;;;;;;10.05;4.13;;;22.40;99.90;;;;;;4990274;28;20115;-80
2022/07/13 06:47:28;;;;;;;6.97;3.67;;;22.50;99.90;;;;;;5002958;28;20048;-84
2022/07/13 06:49:53;;;;;;;6.10;3.50;;;22.60;99.90;;;;;;5021679;28;20040;-81
2022/07/13 06:52:19;;;;;;;8.88;3.75;;;22.70;99.90;;;;;;5009633;28;20059;-81
2022/07/13 06:54:45;;;;;;;5.95;3.72;;;22.80;99.90;;;;;;5037275;28;20395;-82
2022/07/13 06:57:11;;;;;;;5.78;3.72;;;22.90;99.90;;;;;;5002909;28;20056;-81
2022/07/13 06:59:37;;;;;;;5.15;3.60;;;23.00;99.90;;;;;;5008749;28;20040;-81
2022/07/13 07:02:03;;;;;;;5.72;3.75;;;23.10;99.90;;;;;;5008170;28;20113;-81
2022/07/13 07:04:29;;;;;;;6.82;4.22;;;23.10;99.90;;;;;;5023369;28;20053;-79
2022/07/13 07:06:56;;;;;;;7.75;3.70;;;23.20;99.90;;;;;;5024399;28;20082;-80
2022/07/13 07:09:22;;;;;;;7.47;3.95;;;23.30;99.90;;;;;;5024687;28;20052;-80
2022/07/13 07:11:48;;;;;;;5.28;3.53;;;23.40;99.90;;;;;;5022986;28;20045;-80
2022/07/13 07:14:15;;;;;;;5.93;3.70;;;23.40;99.90;;;;;;5022831;28;20052;-81
2022/07/13 07:16:42;;;;;;;4.65;3.28;;;23.50;99.90;;;;;;5040350;28;20044;-81
2022/07/13 07:19:08;;;;;;;6.43;3.80;;;23.60;99.90;;;;;;5006616;28;20053;-81
2022/07/13 07:21:35;;;;;;;5.65;3.95;;;23.70;99.90;;;;;;5005876;28;20045;-81
2022/07/13 07:24:01;;;;;;;4.18;3.55;;;23.90;99.90;;;;;;5025100;28;20052;-81
2022/07/13 07:26:26;;;;;;;4.45;3.45;;;23.90;99.90;;;;;;5021706;28;20052;-81
2022/07/13 07:28:52;;;;;;;6.95;4.00;;;24.00;99.90;;;;;;5016120;28;20070;-83
2022/07/13 07:31:18;;;;;;;4.68;3.47;;;24.20;99.90;;;;;;5006436;28;20093;-81
2022/07/13 07:33:43;;;;;;;5.10;3.45;;;24.30;99.90;;;;;;5005017;28;20049;-82
2022/07/13 07:36:09;;;;;;;6.30;3.95;;;24.40;99.90;;;;;;4991706;28;20051;-80
2022/07/13 07:38:35;;;;;;;8.18;4.18;;;24.40;99.90;;;;;;4991668;28;20044;-80
2022/07/13 07:41:01;;;;;;;5.95;4.00;;;24.40;99.90;;;;;;5006674;28;20168;-79
2022/07/13 07:43:27;;;;;;;5.68;3.33;;;24.50;99.90;;;;;;4991206;28;20048;-80
2022/07/13 07:45:57;;;;;;;4.60;2.90;;;24.50;99.90;;;;;;5007197;28;20487;-80
2022/07/13 07:48:22;;;;;;;5.30;3.25;;;24.60;99.90;;;;;;5008222;28;20080;-79
2022/07/13 07:50:48;;;;;;;5.57;2.95;;;24.70;99.90;;;;;;5007186;28;20091;-79
2022/07/13 07:53:14;;;;;;;5.85;3.20;;;24.90;99.90;;;;;;5023625;28;20139;-79
2022/07/13 07:55:40;;;;;;;5.90;3.35;;;24.90;99.90;;;;;;5022208;28;20083;-79
2022/07/13 07:58:08;;;;;;;5.43;3.45;;;25.10;99.90;;;;;;4990142;28;20053;-79
2022/07/13 08:00:34;;;;;;;5.15;3.25;;;25.20;99.90;;;;;;5030538;28;20084;-79
2022/07/13 08:03:03;;;;;;;7.30;3.35;;;25.40;99.90;;;;;;5022070;28;20538;-80
2022/07/13 08:05:30;;;;;;;6.18;3.10;;;25.50;99.90;;;;;;5038829;28;20083;-80
2022/07/13 08:07:56;;;;;;;4.63;3.03;;;25.60;99.90;;;;;;5023384;28;20048;-80
2022/07/13 08:10:22;;;;;;;5.68;3.30;;;25.70;99.90;;;;;;5039397;28;20083;-80
2022/07/13 08:12:48;;;;;;;5.20;3.20;;;25.80;99.90;;;;;;4992497;28;20052;-80
2022/07/13 08:15:13;;;;;;;5.18;3.10;;;25.80;99.90;;;;;;5007711;28;20044;-80
2022/07/13 08:17:39;;;;;;;5.35;3.58;;;25.90;99.90;;;;;;5006610;28;20059;-79
2022/07/13 08:20:08;;;;;;;6.65;3.42;;;26.00;99.90;;;;;;5006492;28;20880;-79
2022/07/13 08:22:34;;;;;;;5.95;3.13;;;26.10;99.90;;;;;;5023200;28;20074;-79
2022/07/13 08:25:00;;;;;;;5.80;3.13;;;26.00;99.90;;;;;;5006488;28;20494;-80
2022/07/13 08:27:30;;;;;;;8.63;3.65;;;26.10;99.90;;;;;;5023079;28;20605;-81
2022/07/13 08:29:56;;;;;;;5.95;3.08;;;26.10;99.90;;;;;;5039489;28;20107;-79
2022/07/13 08:32:22;;;;;;;5.57;3.50;;;26.20;99.90;;;;;;5005108;28;20083;-83
2022/07/13 08:40:34;;;;;;;6.72;3.17;;;26.00;99.90;;;;;;4973363;28;20061;-81
2022/07/13 08:43:00;;;;;;;4.35;3.42;;;26.40;99.90;;;;;;5004710;28;20129;-82
2022/07/13 08:45:26;;;;;;;4.85;2.78;;;26.40;99.90;;;;;;5025095;28;20475;-83
2022/07/13 08:47:52;;;;;;;6.15;3.20;;;26.50;99.90;;;;;;5022368;28;20044;-82
2022/07/13 08:50:21;;;;;;;4.25;3.20;;;26.70;99.90;;;;;;5040192;28;20083;-83
2022/07/13 08:52:48;;;;;;;4.80;3.20;;;26.70;99.90;;;;;;5023341;28;20048;-84
2022/07/13 08:55:14;;;;;;;4.35;2.85;;;26.70;99.90;;;;;;5024983;28;20060;-83
2022/07/13 08:57:40;;;;;;;4.15;2.70;;;26.80;99.90;;;;;;5025457;28;20056;-83
2022/07/13 09:00:09;;;;;;;4.13;2.70;;;26.80;99.90;;;;;;5026222;28;20139;-82
2022/07/13 09:02:35;;;;;;;4.90;2.50;;;26.90;99.90;;;;;;5017695;28;20101;-83
2022/07/13 09:05:06;;;;;;;4.82;2.58;;;27.00;99.90;;;;;;5041422;28;20230;-82
2022/07/13 09:07:34;;;;;;;5.03;2.60;;;27.00;99.90;;;;;;5011066;28;20056;-82
2022/07/13 09:10:04;;;;;;;5.85;2.60;;;27.20;99.90;;;;;;5043696;28;20102;-82
2022/07/13 09:12:32;;;;;;;5.38;2.67;;;27.30;99.90;;;;;;5041787;28;20052;-82
2022/07/13 09:15:03;;;;;;;6.18;2.70;;;27.30;99.90;;;;;;5027262;28;20053;-83
2022/07/13 09:17:42;;;;;;;4.75;2.40;;;27.50;99.90;;;;;;5023933;28;20059;-83
2022/07/13 09:20:15;;;;;;;4.03;2.45;;;27.70;99.90;;;;;;5034725;28;20052;-82
2022/07/13 09:22:55;;;;;;;7.20;2.80;;;27.90;99.90;;;;;;5039283;28;20592;-83
2022/07/13 09:25:33;;;;;;;3.78;2.17;;;28.10;99.90;;;;;;5041384;28;20538;-82
2022/07/13 09:28:10;;;;;;;5.05;2.30;;;28.20;99.90;;;;;;5035830;28;20080;-82
2022/07/13 09:30:41;;;;;;;3.95;2.60;;;28.40;99.90;;;;;;5016066;28;20464;-82
2022/07/13 09:33:07;;;;;;;4.13;2.40;;;28.40;99.90;;;;;;5024672;28;20041;-83
2022/07/13 09:35:50;;;;;;;6.15;2.60;;;28.50;99.90;;;;;;5021838;28;20839;-83
2022/07/13 09:38:39;;;;;;;4.40;2.38;;;28.70;99.90;;;;;;5023319;28;20483;-82
2022/07/13 09:41:14;;;;;;;3.33;2.22;;;28.90;99.70;;;;;;5026097;28;20049;-82
2022/07/13 09:46:56;;;;;;;4.65;2.40;;;29.00;98.50;;;;;;5036662;28;20144;-83
2022/07/13 09:49:58;;;;;;;3.35;1.90;;;29.00;98.50;;;;;;5025868;28;20567;-81
2022/07/13 09:52:30;;;;;;;4.75;2.30;;;28.80;97.80;;;;;;4946818;28;20049;-82
2022/07/13 09:54:58;;;;;;;4.45;2.38;;;28.80;98.70;;;;;;5021087;28;20045;-82
2022/07/13 09:57:25;;;;;;;3.38;2.17;;;28.90;98.50;;;;;;5040733;28;20045;-82
2022/07/13 09:59:52;;;;;;;3.67;2.20;;;29.00;98.60;;;;;;5025279;28;20053;-82
2022/07/13 10:02:19;;;;;;;3.15;1.98;;;29.00;99.10;;;;;;5024976;28;20142;-82
2022/07/13 10:04:47;;;;;;;4.18;1.80;;;29.00;98.70;;;;;;4989228;28;20047;-83
2022/07/13 10:07:14;;;;;;;3.75;1.70;;;29.10;98.80;;;;;;5025284;28;20048;-82
2022/07/13 10:09:40;;;;;;;2.90;2.13;;;29.20;98.10;;;;;;5021944;28;20040;-82
2022/07/13 10:12:10;;;;;;;3.35;1.80;;;29.30;97.60;;;;;;5039743;28;20125;-83
2022/07/13 10:14:37;;;;;;;2.95;2.03;;;29.40;97.90;;;;;;5000653;28;20048;-82
2022/07/13 10:17:14;;;;;;;4.07;2.35;;;29.70;98.30;;;;;;5008038;28;20048;-82
2022/07/13 10:19:44;;;;;;;4.07;2.25;;;29.80;98.30;;;;;;5038299;28;20059;-82
2022/07/13 10:22:17;;;;;;;3.22;1.80;;;29.80;98.50;;;;;;5023609;28;20048;-84
2022/07/13 10:24:59;;;;;;;3.30;1.98;;;29.80;98.60;;;;;;5020555;28;20579;-83
2022/07/13 10:27:30;;;;;;;6.80;2.28;;;29.60;98.40;;;;;;5024835;28;20070;-83
2022/07/13 10:30:00;;;;;;;2.63;1.70;;;29.50;98.80;;;;;;5020659;28;20054;-82
2022/07/13 10:32:28;;;;;;;2.85;1.90;;;29.70;99.00;;;;;;5021310;28;20033;-83
2022/07/13 10:35:09;;;;;;;2.50;1.67;;;29.80;98.50;;;;;;5022868;28;20056;-84
2022/07/13 10:37:56;;;;;;;3.65;1.50;;;29.80;98.50;;;;;;5037057;28;20041;-83
2022/07/13 10:40:36;;;;;;;3.65;1.63;;;29.70;97.90;;;;;;5039591;28;20049;-81
2022/07/13 10:43:03;;;;;;;3.08;1.63;;;29.60;98.10;;;;;;5036450;28;20072;-81
2022/07/13 10:45:32;;;;;;;3.72;1.50;;;29.60;98.20;;;;;;5033820;28;20792;-76
2022/07/13 10:47:59;;;;;;;3.38;1.60;;;29.50;97.20;;;;;;5028020;28;20049;-76
2022/07/13 10:50:34;;;;;;;3.75;1.83;;;29.30;98.20;;;;;;5041273;28;20041;-76
2022/07/13 10:53:01;;;;;;;2.33;1.27;;;29.20;98.50;;;;;;5042240;28;20057;-76
2022/07/13 10:55:31;;;;;;;3.60;1.80;;;29.60;98.30;;;;;;5042450;28;20063;-76
2022/07/13 10:57:57;;;;;;;2.83;1.65;;;29.90;97.70;;;;;;5006536;28;20127;-76
2022/07/13 11:00:48;;;;;;;3.08;1.35;;;29.80;97.20;;;;;;5041328;28;20131;-76
2022/07/13 11:03:27;;;;;;;4.00;2.10;;;29.80;95.40;;;;;;5040914;28;20044;-76
2022/07/13 11:06:28;;;;;;;3.03;1.95;;;29.70;96.30;;;;;;5040208;28;20036;-76
2022/07/13 11:09:15;;;;;;;3.33;1.90;;;29.40;96.30;;;;;;5013988;28;20056;-76
2022/07/13 11:11:49;;;;;;;4.10;2.20;;;29.10;97.50;;;;;;5039484;28;20075;-76
2022/07/13 11:14:40;;;;;;;2.88;2.13;;;29.00;98.10;;;;;;5040111;28;20056;-76
2022/07/13 11:17:18;;;;;;;3.17;2.03;;;29.00;97.40;;;;;;5038381;28;20045;-76
2022/07/13 11:20:00;;;;;;;3.70;2.50;;;29.10;98.10;;;;;;5024388;28;20056;-76
2022/07/13 11:25:47;;;;;;;6.25;2.22;;;28.90;98.80;;;;;;4985419;28;20056;-76
2022/07/13 11:28:18;;;;;;;5.90;2.00;;;29.00;99.10;;;;;;5038763;28;20060;-76
2022/07/13 11:30:53;;;;;;;4.68;2.35;;;28.80;99.30;;;;;;5023052;28;20459;-76
2022/07/13 11:33:19;;;;;;;6.60;2.35;;;28.90;99.20;;;;;;5027305;28;20052;-78
2022/07/13 11:35:49;;;;;;;4.90;2.25;;;28.90;99.60;;;;;;5022003;28;20488;-79
2022/07/13 11:38:16;;;;;;;6.40;2.30;;;29.00;99.50;;;;;;5023296;28;20049;-79
2022/07/13 11:40:43;;;;;;;6.95;2.50;;;29.00;99.60;;;;;;5023357;28;20048;-78
2022/07/13 11:43:10;;;;;;;5.32;2.05;;;29.00;99.60;;;;;;5019065;28;20067;-79
2022/07/13 11:45:40;;;;;;;6.15;2.28;;;29.30;99.40;;;;;;5021743;28;20515;-77
2022/07/13 11:48:10;;;;;;;6.80;2.30;;;29.60;99.40;;;;;;5040311;28;20049;-77
2022/07/13 11:50:45;;;;;;;8.20;2.42;;;29.40;98.90;;;;;;5054661;28;20052;-77
2022/07/13 11:53:30;;;;;;;10.85;2.55;;;29.30;98.80;;;;;;5024230;28;20508;-76
2022/07/13 11:56:05;;;;;;;7.80;2.30;;;29.10;98.70;;;;;;5022410;28;20440;-76
2022/07/13 11:58:33;;;;;;;5.90;2.13;;;29.10;99.10;;;;;;5022560;28;20058;-76
2022/07/13 12:01:00;;;;;;;7.72;2.78;;;29.00;99.50;;;;;;5039691;28;20316;-76
2022/07/13 12:03:34;;;;;;;8.52;2.20;;;28.80;99.70;;;;;;5023291;28;20053;-76
2022/07/13 12:06:08;;;;;;;4.15;2.03;;;28.80;99.70;;;;;;5020209;28;20761;-77
2022/07/13 12:08:38;;;;;;;4.13;1.80;;;28.90;99.40;;;;;;5039209;28;20378;-76
2022/07/13 12:11:07;;;;;;;4.55;1.80;;;29.00;99.20;;;;;;5038995;28;20554;-76
2022/07/13 12:13:35;;;;;;;4.00;1.65;;;29.20;98.50;;;;;;5045446;28;20978;-76
2022/07/13 12:16:02;;;;;;;6.47;2.08;;;29.40;98.50;;;;;;5021269;28;20045;-77
2022/07/13 12:18:29;;;;;;;5.53;2.10;;;29.30;98.00;;;;;;5004436;28;20049;-77
2022/07/13 12:20:55;;;;;;;4.65;1.70;;;29.50;98.00;;;;;;5021593;28;20075;-77
2022/07/13 12:23:21;;;;;;;5.00;1.83;;;29.60;97.30;;;;;;5021963;28;20068;-76
2022/07/13 12:25:48;;;;;;;7.47;1.75;;;29.80;97.20;;;;;;5039434;28;20433;-76
2022/07/13 12:28:14;;;;;;;5.63;1.50;;;30.10;96.60;;;;;;5026772;28;20053;-76
2022/07/13 12:31:00;;;;;;;5.32;1.60;;;30.20;96.00;;;;;;5026722;28;20067;-77
2022/07/13 12:33:37;;;;;;;6.05;1.88;;;30.30;94.80;;;;;;5043558;28;20084;-76
2022/07/13 12:36:04;;;;;;;5.57;1.70;;;30.40;95.50;;;;;;5042811;28;20159;-76
2022/07/13 12:38:31;;;;;;;4.55;1.60;;;30.70;95.40;;;;;;5043695;28;20105;-76
2022/07/13 12:40:59;;;;;;;7.88;1.70;;;30.70;94.80;;;;;;5026271;28;20044;-76
2022/07/13 12:43:26;;;;;;;6.28;2.03;;;30.70;94.40;;;;;;5026788;28;20052;-76
2022/07/13 12:46:01;;;;;;;9.05;2.10;;;30.50;94.10;;;;;;5042528;28;20040;-76
2022/07/13 12:48:31;;;;;;;6.83;2.10;;;30.30;93.80;;;;;;5026911;28;20070;-76
2022/07/13 12:51:11;;;;;;;7.15;1.90;;;30.10;94.10;;;;;;5040883;28;20048;-76
2022/07/13 12:54:02;;;;;;;6.93;1.60;;;30.00;93.90;;;;;;5042478;28;20048;-76
2022/07/13 12:56:28;;;;;;;4.20;1.50;;;29.90;93.30;;;;;;5026779;28;20097;-76
2022/07/13 12:59:04;;;;;;;4.60;1.50;;;29.70;93.20;;;;;;5026758;28;20048;-75
2022/07/13 13:01:34;;;;;;;5.00;1.65;;;29.90;93.40;;;;;;5034586;28;20056;-76